createdAt,value
2023-04-27T00:01:19.553Z,20.13
2023-04-27T00:03:46.359Z,18.63
2023-04-27T00:06:13.046Z,16.83
2023-04-27T00:08:39.796Z,18.90
2023-04-27T00:11:06.651Z,16.10
2023-04-27T00:13:33.341Z,20.35
2023-04-27T00:16:03.511Z,19.48
2023-04-27T00:18:31.121Z,18.05
2023-04-27T00:20:58.690Z,20.60
2023-04-27T00:23:26.194Z,18.67
2023-04-27T00:25:52.896Z,18.65
2023-04-27T00:28:19.644Z,20.80
2023-04-27T00:30:46.492Z,20.45
2023-04-27T00:33:13.246Z,20.33
2023-04-27T00:35:40.594Z,19.33
2023-04-27T00:38:07.224Z,16.55
2023-04-27T00:40:33.998Z,15.32
2023-04-27T00:43:01.000Z,18.88
2023-04-27T00:45:50.614Z,20.48
2023-04-27T00:48:17.596Z,22.08
2023-04-27T00:50:44.243Z,18.27
2023-04-27T00:53:12.107Z,20.92
2023-04-27T00:55:38.720Z,15.40
2023-04-27T00:58:05.390Z,22.13
2023-04-27T01:00:32.156Z,23.15
2023-04-27T01:03:01.091Z,23.48
2023-04-27T01:05:29.102Z,17.05
2023-04-27T01:07:56.825Z,16.75
2023-04-27T01:10:23.344Z,22.17
2023-04-27T01:12:50.077Z,23.27
2023-04-27T01:15:16.656Z,18.38
2023-04-27T01:17:43.748Z,20.95
2023-04-27T01:20:11.131Z,19.55
2023-04-27T01:22:38.183Z,21.67
2023-04-27T01:25:05.103Z,21.55
2023-04-27T01:27:32.268Z,23.88
2023-04-27T01:29:59.070Z,20.20
2023-04-27T01:32:26.725Z,24.40
2023-04-27T01:34:53.410Z,19.85
2023-04-27T01:37:20.188Z,20.17
2023-04-27T01:39:47.231Z,15.32
2023-04-27T01:42:13.774Z,22.92
2023-04-27T01:44:40.414Z,17.48
2023-04-27T01:47:08.769Z,23.98
2023-04-27T01:49:35.951Z,19.40
2023-04-27T01:52:03.030Z,19.70
2023-04-27T01:54:29.647Z,21.85
2023-04-27T01:56:58.593Z,23.98
2023-04-27T01:59:25.327Z,21.38
2023-04-27T02:01:52.309Z,22.08
2023-04-27T02:04:19.072Z,25.88
2023-04-27T02:06:45.894Z,25.88
2023-04-27T02:09:13.809Z,22.20
2023-04-27T02:11:40.790Z,27.85
2023-04-27T02:14:07.499Z,25.42
2023-04-27T02:16:34.369Z,28.60
2023-04-27T02:19:01.627Z,25.40
2023-04-27T02:21:29.442Z,32.13
2023-04-27T02:24:00.506Z,24.50
2023-04-27T02:26:29.583Z,26.92
2023-04-27T02:28:57.303Z,22.08
2023-04-27T02:31:24.588Z,27.10
2023-04-27T02:33:51.335Z,28.10
2023-04-27T02:36:18.601Z,26.60
2023-04-27T02:38:45.543Z,28.35
2023-04-27T02:41:12.216Z,22.00
2023-04-27T02:43:38.910Z,20.27
2023-04-27T02:46:06.616Z,24.50
2023-04-27T02:48:33.490Z,26.35
2023-04-27T02:51:04.073Z,25.48
2023-04-27T02:53:30.704Z,33.60
2023-04-27T02:55:58.531Z,24.25
2023-04-27T02:58:26.220Z,24.02
2023-04-27T03:00:56.765Z,19.08
2023-04-27T03:03:24.279Z,29.85
2023-04-27T03:05:51.052Z,25.85
2023-04-27T03:08:18.329Z,23.98
2023-04-27T03:10:45.465Z,23.33
2023-04-27T03:13:12.083Z,21.35
2023-04-27T03:15:38.903Z,30.42
2023-04-27T03:18:14.913Z,25.45
2023-04-27T03:20:41.906Z,22.65
2023-04-27T03:23:08.678Z,25.55
2023-04-27T03:25:35.443Z,26.92
2023-04-27T03:28:02.091Z,23.10
2023-04-27T03:30:29.324Z,26.35
2023-04-27T03:32:56.485Z,33.88
2023-04-27T03:35:26.244Z,26.42
2023-04-27T03:37:52.984Z,31.35
2023-04-27T03:40:21.125Z,27.27
2023-04-27T03:42:47.869Z,28.42
2023-04-27T03:45:16.541Z,26.55
2023-04-27T03:47:43.587Z,24.23
2023-04-27T03:50:10.396Z,22.40
2023-04-27T03:52:37.670Z,27.55
2023-04-27T03:55:06.169Z,29.02
2023-04-27T03:57:33.255Z,25.63
2023-04-27T04:00:00.426Z,30.33
2023-04-27T04:02:28.304Z,28.65
2023-04-27T04:04:55.162Z,28.17
2023-04-27T04:07:22.192Z,25.27
2023-04-27T04:09:48.809Z,22.77
2023-04-27T04:12:15.607Z,27.95
2023-04-27T04:14:42.936Z,24.17
2023-04-27T04:17:10.899Z,25.92
2023-04-27T04:19:37.657Z,23.20
2023-04-27T04:22:04.797Z,23.88
2023-04-27T04:24:31.463Z,26.50
2023-04-27T04:26:58.632Z,22.63
2023-04-27T04:29:25.582Z,20.48
2023-04-27T04:31:52.530Z,25.42
2023-04-27T04:34:19.990Z,26.98
2023-04-27T04:36:46.732Z,25.02
2023-04-27T04:39:13.734Z,28.25
2023-04-27T04:41:40.648Z,23.15
2023-04-27T04:44:09.512Z,30.63
2023-04-27T04:46:37.269Z,26.73
2023-04-27T04:49:04.235Z,22.92
2023-04-27T04:51:32.959Z,26.88
2023-04-27T04:54:01.838Z,29.25
2023-04-27T04:56:29.189Z,26.52
2023-04-27T04:58:56.953Z,25.90
2023-04-27T05:01:24.538Z,26.77
2023-04-27T05:03:51.529Z,27.52
2023-04-27T05:06:18.942Z,25.65
2023-04-27T05:08:45.712Z,24.02
2023-04-27T05:11:12.325Z,28.65
2023-04-27T05:13:40.228Z,33.33
2023-04-27T05:16:07.834Z,27.63
2023-04-27T05:18:35.221Z,24.50
2023-04-27T05:21:02.130Z,30.67
2023-04-27T05:23:28.813Z,24.17
2023-04-27T05:25:55.369Z,21.80
2023-04-27T05:28:22.000Z,31.65
2023-04-27T05:30:48.678Z,21.70
2023-04-27T05:33:15.502Z,31.73
2023-04-27T05:35:42.130Z,22.85
2023-04-27T05:38:08.758Z,24.77
2023-04-27T05:40:35.747Z,23.73
2023-04-27T05:43:05.212Z,19.60
2023-04-27T05:45:31.911Z,26.00
2023-04-27T05:47:58.578Z,22.00
2023-04-27T05:50:25.879Z,18.88
2023-04-27T05:52:52.644Z,18.92
2023-04-27T05:55:19.528Z,29.50
2023-04-27T05:57:47.785Z,23.00
2023-04-27T06:00:22.567Z,25.70
2023-04-27T06:02:51.591Z,27.17
2023-04-27T06:05:18.777Z,22.50
2023-04-27T06:07:45.514Z,16.95
2023-04-27T06:10:12.362Z,23.80
2023-04-27T06:12:38.974Z,30.42
2023-04-27T06:15:09.877Z,25.55
2023-04-27T06:17:37.890Z,21.05
2023-04-27T06:20:08.410Z,21.50
2023-04-27T06:22:39.443Z,23.70
2023-04-27T06:25:07.101Z,20.42
2023-04-27T06:27:34.639Z,20.50
2023-04-27T06:30:01.718Z,19.80
2023-04-27T06:32:28.557Z,20.05
2023-04-27T06:34:55.191Z,20.30
2023-04-27T06:37:21.778Z,21.85
2023-04-27T06:39:48.426Z,18.30
2023-04-27T06:42:15.014Z,20.95
2023-04-27T06:44:42.087Z,19.65
2023-04-27T06:47:12.430Z,20.73
2023-04-27T06:49:39.587Z,24.30
2023-04-27T06:52:07.440Z,19.23
2023-04-27T06:54:34.096Z,21.98
2023-04-27T06:57:01.496Z,17.85
2023-04-27T06:59:28.367Z,17.90
2023-04-27T07:01:55.990Z,20.30
2023-04-27T07:04:22.713Z,17.83
2023-04-27T07:06:49.662Z,18.20
2023-04-27T07:09:26.895Z,15.73
2023-04-27T07:11:54.296Z,16.65
2023-04-27T07:14:20.999Z,19.38
2023-04-27T07:16:47.812Z,13.85
2023-04-27T07:19:14.584Z,17.25
2023-04-27T07:21:41.344Z,22.63
2023-04-27T07:24:08.041Z,13.70
2023-04-27T07:26:39.662Z,21.08
2023-04-27T07:29:18.975Z,14.73
2023-04-27T07:31:52.957Z,19.38
2023-04-27T07:34:20.294Z,14.93
2023-04-27T07:36:48.260Z,15.18
2023-04-27T07:39:15.222Z,12.00
2023-04-27T07:41:41.951Z,17.65
2023-04-27T07:44:08.552Z,16.48
2023-04-27T07:46:35.268Z,14.35
2023-04-27T07:49:02.476Z,14.10
2023-04-27T07:51:29.290Z,11.88
2023-04-27T07:53:56.323Z,16.17
2023-04-27T07:56:23.049Z,17.65
2023-04-27T07:58:49.585Z,14.88
2023-04-27T08:01:17.963Z,14.38
2023-04-27T08:03:45.932Z,11.60
2023-04-27T08:06:13.124Z,13.55
2023-04-27T08:08:39.952Z,14.68
2023-04-27T08:11:09.666Z,8.77
2023-04-27T08:13:36.253Z,17.75
2023-04-27T08:16:03.179Z,14.35
2023-04-27T08:18:29.772Z,11.20
2023-04-27T08:20:56.486Z,15.27
2023-04-27T08:23:27.526Z,10.57
2023-04-27T08:25:54.078Z,10.93
2023-04-27T08:28:22.835Z,15.95
2023-04-27T08:30:49.597Z,11.25
2023-04-27T08:33:16.462Z,12.32
2023-04-27T08:35:43.122Z,14.45
2023-04-27T08:38:10.059Z,13.65
2023-04-27T08:40:36.745Z,13.38
2023-04-27T08:43:03.314Z,13.93
2023-04-27T08:45:29.902Z,12.15
2023-04-27T08:47:56.981Z,13.07
2023-04-27T08:50:24.312Z,17.20
2023-04-27T08:52:51.971Z,9.77
2023-04-27T08:55:18.742Z,10.32
2023-04-27T08:57:58.312Z,12.02
2023-04-27T09:00:26.189Z,12.40
2023-04-27T09:02:52.945Z,19.58
2023-04-27T09:05:21.932Z,17.63
2023-04-27T09:08:02.512Z,11.43
2023-04-27T09:10:29.795Z,14.40
2023-04-27T09:13:01.144Z,11.40
2023-04-27T09:15:28.816Z,18.65
2023-04-27T09:17:56.578Z,11.73
2023-04-27T09:20:24.434Z,13.20
2023-04-27T09:22:52.922Z,13.55
2023-04-27T09:25:31.519Z,13.52
2023-04-27T09:28:00.496Z,18.67
2023-04-27T09:30:28.058Z,13.05
2023-04-27T09:33:03.890Z,12.48
2023-04-27T09:35:32.669Z,14.80
2023-04-27T09:38:00.077Z,13.55
2023-04-27T09:40:29.609Z,6.97
2023-04-27T09:42:57.436Z,22.73
2023-04-27T09:45:25.210Z,15.55
2023-04-27T09:47:52.914Z,10.00
2023-04-27T09:50:21.721Z,8.98
2023-04-27T09:52:49.178Z,18.50
2023-04-27T09:55:22.812Z,12.52
2023-04-27T09:58:13.592Z,10.07
2023-04-27T10:01:03.882Z,11.47
2023-04-27T10:03:33.528Z,9.77
2023-04-27T10:06:52.017Z,34.78
2023-04-27T10:09:25.577Z,23.33
2023-04-27T10:11:53.927Z,11.65
2023-04-27T10:14:22.430Z,16.80
2023-04-27T10:16:54.105Z,10.85
2023-04-27T10:19:22.222Z,7.25
2023-04-27T10:22:00.286Z,11.52
2023-04-27T10:24:40.778Z,10.60
2023-04-27T10:27:09.650Z,8.85
2023-04-27T10:29:43.750Z,6.72
2023-04-27T10:32:21.047Z,8.52
2023-04-27T10:34:49.003Z,10.10
2023-04-27T10:37:15.951Z,9.10
2023-04-27T10:39:49.377Z,10.68
2023-04-27T10:42:28.308Z,15.60
2023-04-27T10:44:57.629Z,7.63
2023-04-27T10:47:24.808Z,13.73
2023-04-27T10:49:54.318Z,9.88
2023-04-27T10:52:20.978Z,11.65
2023-04-27T10:54:47.808Z,10.25
2023-04-27T10:57:14.394Z,10.18
2023-04-27T10:59:52.074Z,11.18
2023-04-27T11:02:26.566Z,9.98
2023-04-27T11:04:53.442Z,9.73
2023-04-27T11:07:27.523Z,12.07
2023-04-27T11:09:54.421Z,9.57
2023-04-27T11:12:21.583Z,12.80
2023-04-27T11:14:48.263Z,10.68
2023-04-27T11:17:15.145Z,15.18
2023-04-27T11:19:48.604Z,7.53
2023-04-27T11:22:19.052Z,8.30
2023-04-27T11:24:49.581Z,9.30
2023-04-27T11:27:17.478Z,7.57
2023-04-27T11:29:44.323Z,7.82
2023-04-27T11:32:23.728Z,10.05
2023-04-27T11:34:53.576Z,15.23
2023-04-27T11:37:25.412Z,12.65
2023-04-27T11:39:54.537Z,7.57
2023-04-27T11:42:23.536Z,12.05
2023-04-27T11:44:54.316Z,20.77
2023-04-27T11:47:22.752Z,10.02
2023-04-27T11:49:50.162Z,14.70
2023-04-27T11:52:16.950Z,21.23
2023-04-27T11:54:56.210Z,32.88
2023-04-27T11:57:27.036Z,7.80
2023-04-27T11:59:54.054Z,8.85
2023-04-27T12:02:22.232Z,10.70
2023-04-27T12:04:52.182Z,7.15
2023-04-27T12:07:19.451Z,8.77
2023-04-27T12:09:46.876Z,10.07
2023-04-27T12:12:14.160Z,7.40
2023-04-27T12:14:41.345Z,8.85
2023-04-27T12:17:08.015Z,6.60
2023-04-27T12:19:34.810Z,9.07
2023-04-27T12:22:01.433Z,12.27
2023-04-27T12:24:28.035Z,9.52
2023-04-27T12:26:54.682Z,9.88
2023-04-27T12:29:22.205Z,11.85
2023-04-27T12:31:48.777Z,9.90
2023-04-27T12:34:15.828Z,9.48
2023-04-27T12:36:42.917Z,10.60
2023-04-27T12:39:20.334Z,13.10
2023-04-27T12:41:48.129Z,12.65
2023-04-27T12:44:15.558Z,10.10
2023-04-27T12:46:48.234Z,15.50
2023-04-27T12:49:15.430Z,15.07
2023-04-27T12:51:42.296Z,13.95
2023-04-27T12:54:10.083Z,11.63
2023-04-27T12:56:37.098Z,12.20
2023-04-27T12:59:04.488Z,11.50
2023-04-27T13:01:31.608Z,11.40
2023-04-27T13:04:03.880Z,12.23
2023-04-27T13:06:31.918Z,13.00
2023-04-27T13:08:59.371Z,10.80
2023-04-27T13:11:26.184Z,15.25
2023-04-27T13:13:52.817Z,12.38
2023-04-27T13:16:21.688Z,12.23
2023-04-27T13:18:51.897Z,14.25
2023-04-27T13:21:18.927Z,11.80
2023-04-27T13:23:45.777Z,12.38
2023-04-27T13:26:12.762Z,16.10
2023-04-27T13:28:40.700Z,14.77
2023-04-27T13:31:07.350Z,32.60
2023-04-27T13:33:41.763Z,17.95
2023-04-27T13:36:12.180Z,43.20
2023-04-27T13:38:39.014Z,14.50
2023-04-27T13:41:06.356Z,20.50
2023-04-27T13:43:33.007Z,14.95
2023-04-27T13:46:01.665Z,14.65
2023-04-27T13:48:29.611Z,11.93
2023-04-27T13:50:56.373Z,11.60
2023-04-27T13:53:26.378Z,11.30
2023-04-27T13:55:54.384Z,53.45
2023-04-27T13:58:21.681Z,14.07
2023-04-27T14:00:49.050Z,60.08
2023-04-27T14:03:16.676Z,18.60
2023-04-27T14:05:44.420Z,67.97
2023-04-27T14:08:11.436Z,21.85
2023-04-27T14:10:38.685Z,23.98
2023-04-27T14:13:05.856Z,17.65
2023-04-27T14:15:36.913Z,21.13
2023-04-27T14:18:05.377Z,13.85
2023-04-27T14:20:32.314Z,20.35
2023-04-27T14:22:59.493Z,48.83
2023-04-27T14:25:27.233Z,20.02
2023-04-27T14:27:53.997Z,31.17
2023-04-27T14:30:21.568Z,42.03
2023-04-27T14:32:48.413Z,22.40
2023-04-27T14:35:15.103Z,31.10
2023-04-27T14:37:41.819Z,20.35
2023-04-27T14:40:09.098Z,45.72
2023-04-27T14:42:35.812Z,19.15
2023-04-27T14:45:03.903Z,41.55
2023-04-27T14:47:30.753Z,15.68
2023-04-27T14:49:57.491Z,22.35
2023-04-27T14:52:24.354Z,16.38
2023-04-27T14:54:51.131Z,15.73
2023-04-27T14:57:17.837Z,22.15
2023-04-27T14:59:44.580Z,21.67
2023-04-27T15:02:11.160Z,22.58
2023-04-27T15:04:39.597Z,20.30
2023-04-27T15:07:06.528Z,28.50
2023-04-27T15:09:34.017Z,19.50
2023-04-27T15:12:02.010Z,23.73
2023-04-27T15:14:28.556Z,18.30
2023-04-27T15:16:55.242Z,19.92
2023-04-27T15:19:21.818Z,27.42
2023-04-27T15:21:48.592Z,20.02
2023-04-27T15:24:15.266Z,25.02
2023-04-27T15:26:41.773Z,18.20
2023-04-27T15:29:08.319Z,33.88
2023-04-27T15:31:34.886Z,16.02
2023-04-27T15:34:01.511Z,43.85
2023-04-27T15:36:28.903Z,21.00
2023-04-27T15:38:55.884Z,22.75
2023-04-27T15:41:22.900Z,30.77
2023-04-27T15:43:50.799Z,29.75
2023-04-27T15:46:20.942Z,16.90
2023-04-27T15:48:49.245Z,23.98
2023-04-27T15:51:15.768Z,15.57
2023-04-27T15:53:42.351Z,23.25
2023-04-27T15:56:08.955Z,17.67
2023-04-27T15:58:45.480Z,23.77
2023-04-27T16:01:15.188Z,19.83
2023-04-27T16:03:42.305Z,28.67
2023-04-27T16:06:09.048Z,30.35
2023-04-27T16:08:36.390Z,25.85
2023-04-27T16:11:02.881Z,53.90
2023-04-27T16:13:29.659Z,26.08
2023-04-27T16:15:56.402Z,27.08
2023-04-27T16:18:23.232Z,69.63
2023-04-27T16:20:49.951Z,24.77
2023-04-27T16:23:17.001Z,40.92
2023-04-27T16:25:43.543Z,24.92
2023-04-27T16:28:10.198Z,64.43
2023-04-27T16:30:38.068Z,20.58
2023-04-27T16:33:05.087Z,50.72
2023-04-27T16:35:33.420Z,21.63
2023-04-27T16:38:00.309Z,29.85
2023-04-27T16:40:26.994Z,28.67
2023-04-27T16:42:53.751Z,23.73
2023-04-27T16:45:20.519Z,70.70
2023-04-27T16:47:47.543Z,25.17
2023-04-27T16:50:14.259Z,55.20
2023-04-27T16:52:40.884Z,18.90
2023-04-27T16:55:08.527Z,24.15
2023-04-27T16:57:35.741Z,19.38
2023-04-27T17:00:06.011Z,16.33
2023-04-27T17:02:32.754Z,12.00
2023-04-27T17:05:00.609Z,20.10
2023-04-27T17:07:31.322Z,18.92
2023-04-27T17:09:59.038Z,13.85
2023-04-27T17:12:26.014Z,25.52
2023-04-27T17:14:52.789Z,16.88
2023-04-27T17:17:19.324Z,43.63
2023-04-27T17:19:46.509Z,14.88
2023-04-27T17:22:14.773Z,12.25
2023-04-27T17:24:41.418Z,11.45
2023-04-27T17:27:08.075Z,16.10
2023-04-27T17:29:34.745Z,17.73
2023-04-27T17:32:01.759Z,20.10
2023-04-27T17:34:28.449Z,12.43
2023-04-27T17:36:55.067Z,17.83
2023-04-27T17:39:22.700Z,14.38
2023-04-27T17:41:49.393Z,10.50
2023-04-27T17:44:16.466Z,15.00
2023-04-27T17:46:47.200Z,13.77
2023-04-27T17:49:14.976Z,8.18
2023-04-27T17:51:41.748Z,15.52
2023-04-27T17:54:08.351Z,15.57
2023-04-27T17:56:35.072Z,16.98
2023-04-27T17:59:01.754Z,11.95
2023-04-27T18:01:28.525Z,15.07
2023-04-27T18:03:55.582Z,16.05
2023-04-27T18:06:23.106Z,35.03
2023-04-27T18:08:49.924Z,13.18
2023-04-27T18:11:16.519Z,14.75
2023-04-27T18:13:43.128Z,21.60
2023-04-27T18:16:09.781Z,20.05
2023-04-27T18:18:36.516Z,22.88
2023-04-27T18:21:03.346Z,13.60
2023-04-27T18:23:30.063Z,16.30
2023-04-27T18:25:59.967Z,23.52
2023-04-27T18:28:26.692Z,15.82
2023-04-27T18:30:53.411Z,22.65
2023-04-27T18:33:21.006Z,18.83
2023-04-27T18:35:47.841Z,57.63
2023-04-27T18:38:14.362Z,15.35
2023-04-27T18:40:40.910Z,19.67
2023-04-27T18:43:07.802Z,16.67
2023-04-27T18:45:34.542Z,24.27
2023-04-27T18:48:01.209Z,16.17
2023-04-27T18:50:27.899Z,15.32
2023-04-27T18:52:54.839Z,21.77
2023-04-27T18:55:21.567Z,21.15
2023-04-27T18:57:48.195Z,82.68
2023-04-27T19:00:15.307Z,15.27
2023-04-27T19:02:41.992Z,11.50
2023-04-27T19:05:13.065Z,14.90
2023-04-27T19:07:41.324Z,17.13
2023-04-27T19:10:08.662Z,15.82
2023-04-27T19:12:36.034Z,12.55
2023-04-27T19:15:03.804Z,16.00
2023-04-27T19:17:30.885Z,14.10
2023-04-27T19:19:58.411Z,20.02
2023-04-27T19:22:27.030Z,30.05
2023-04-27T19:24:53.739Z,16.17
2023-04-27T19:27:20.556Z,15.82
2023-04-27T19:29:55.312Z,14.20
2023-04-27T19:32:22.139Z,25.35
2023-04-27T19:34:48.810Z,65.53
2023-04-27T19:37:15.918Z,34.95
2023-04-27T19:39:42.540Z,57.22
2023-04-27T19:42:09.372Z,32.22
2023-04-27T19:44:36.027Z,32.25
2023-04-27T19:47:02.835Z,29.35
2023-04-27T19:49:33.002Z,26.45
2023-04-27T19:52:00.029Z,13.68
2023-04-27T19:54:39.833Z,24.75
2023-04-27T19:57:06.759Z,32.33
2023-04-27T19:59:37.139Z,123.70
2023-04-27T20:02:04.464Z,32.75
2023-04-27T20:04:31.274Z,42.90
2023-04-27T20:06:58.410Z,38.38
2023-04-27T20:09:25.549Z,30.85
2023-04-27T20:11:52.320Z,35.67
2023-04-27T20:14:19.035Z,72.45
2023-04-27T20:16:45.699Z,30.70
2023-04-27T20:19:12.552Z,63.05
2023-04-27T20:21:39.590Z,41.60
2023-04-27T20:24:07.119Z,59.17
2023-04-27T20:26:33.662Z,30.75
2023-04-27T20:29:00.426Z,27.17
2023-04-27T20:31:27.028Z,18.33
2023-04-27T20:33:56.532Z,31.42
2023-04-27T20:36:24.659Z,41.00
2023-04-27T20:38:51.735Z,13.38
2023-04-27T20:41:27.833Z,29.95
2023-04-27T20:43:55.322Z,25.08
2023-04-27T20:46:21.961Z,24.20
2023-04-27T20:48:48.634Z,49.65
2023-04-27T20:51:15.292Z,51.40
2023-04-27T20:53:46.663Z,27.98
2023-04-27T20:56:15.043Z,76.72
2023-04-27T20:58:41.654Z,26.23
2023-04-27T21:01:08.314Z,24.30
2023-04-27T21:03:35.645Z,84.82
2023-04-27T21:06:02.723Z,33.88
2023-04-27T21:08:29.535Z,171.50
2023-04-27T21:10:57.212Z,53.05
2023-04-27T21:13:24.498Z,117.90
2023-04-27T21:15:51.244Z,65.47
2023-04-27T21:18:28.975Z,123.13
2023-04-27T21:20:57.291Z,52.70
2023-04-27T21:23:23.977Z,191.55
2023-04-27T21:25:50.724Z,56.95
2023-04-27T21:28:17.361Z,66.70
2023-04-27T21:30:44.018Z,40.85
2023-04-27T21:33:10.729Z,127.65
2023-04-27T21:35:37.744Z,66.78
2023-04-27T21:38:04.659Z,147.70
2023-04-27T21:40:31.415Z,93.07
2023-04-27T21:42:58.035Z,140.10
2023-04-27T21:45:25.454Z,94.97
2023-04-27T21:47:52.082Z,169.85
2023-04-27T21:50:18.805Z,191.63
2023-04-27T21:52:46.124Z,323.42
2023-04-27T21:55:12.917Z,48.28
2023-04-27T21:57:39.646Z,419.00
2023-04-27T22:00:13.397Z,168.52
2023-04-27T22:02:46.971Z,80.18
2023-04-27T22:05:14.288Z,186.50
2023-04-27T22:07:41.375Z,299.95
2023-04-27T22:10:08.235Z,215.73
2023-04-27T22:12:35.036Z,322.75
2023-04-27T22:15:02.727Z,201.20
2023-04-27T22:17:29.363Z,196.25
2023-04-27T22:19:55.965Z,156.40
2023-04-27T22:22:22.714Z,89.60
2023-04-27T22:24:49.298Z,50.28
2023-04-27T22:27:15.914Z,44.00
2023-04-27T22:29:42.463Z,41.10
2023-04-27T22:32:09.845Z,80.65
2023-04-27T22:34:37.139Z,46.15
2023-04-27T22:37:04.004Z,95.55
2023-04-27T22:39:31.489Z,38.83
2023-04-27T22:41:58.494Z,171.07
2023-04-27T22:44:25.842Z,45.15
2023-04-27T22:46:52.713Z,65.15
2023-04-27T22:49:19.473Z,38.25
2023-04-27T22:51:47.109Z,90.68
2023-04-27T22:54:14.566Z,132.43
2023-04-27T22:56:41.654Z,172.63
2023-04-27T22:59:08.227Z,48.33
2023-04-27T23:01:35.560Z,153.85
2023-04-27T23:04:03.033Z,96.78
2023-04-27T23:06:30.289Z,173.38
2023-04-27T23:08:57.300Z,106.63
2023-04-27T23:11:24.153Z,87.05
2023-04-27T23:13:50.727Z,117.38
2023-04-27T23:16:17.535Z,106.00
2023-04-27T23:18:44.277Z,197.48
2023-04-27T23:21:11.653Z,113.93
2023-04-27T23:23:38.406Z,167.07
2023-04-27T23:26:14.749Z,153.25
2023-04-27T23:28:41.378Z,82.53
2023-04-27T23:31:08.291Z,32.70
2023-04-27T23:33:35.250Z,57.53
2023-04-27T23:36:02.636Z,33.55
2023-04-27T23:38:29.633Z,72.80
2023-04-27T23:40:56.383Z,85.32
2023-04-27T23:43:23.125Z,143.63
2023-04-27T23:45:51.385Z,68.78
2023-04-27T23:48:19.018Z,31.35
2023-04-27T23:50:46.175Z,246.90
2023-04-27T23:53:12.749Z,244.70
2023-04-27T23:55:39.331Z,191.52
2023-04-27T23:58:06.138Z,30.75
